sensor_id;sensor_type;location;lat;lon;timestamp;temperature;humidity
16321;DHT22;8269;50.990;4.494;2023-05-09T00:00:01;14.60;99.90
16321;DHT22;8269;50.990;4.494;2023-05-09T00:02:27;14.60;99.90
16321;DHT22;8269;50.990;4.494;2023-05-09T00:04:54;14.50;99.90
16321;DHT22;8269;50.990;4.494;2023-05-09T00:07:21;14.60;99.90
16321;DHT22;8269;50.990;4.494;2023-05-09T00:09:47;14.50;99.90
16321;DHT22;8269;50.990;4.494;2023-05-09T00:12:12;14.50;99.90
16321;DHT22;8269;50.990;4.494;2023-05-09T00:14:38;14.50;99.90
16321;DHT22;8269;50.990;4.494;2023-05-09T00:17:05;14.40;99.90
16321;DHT22;8269;50.990;4.494;2023-05-09T00:19:32;14.40;99.90
16321;DHT22;8269;50.990;4.494;2023-05-09T00:21:58;14.40;99.90
16321;DHT22;8269;50.990;4.494;2023-05-09T00:24:23;14.50;99.90
16321;DHT22;8269;50.990;4.494;2023-05-09T00:26:49;14.50;99.90
16321;DHT22;8269;50.990;4.494;2023-05-09T00:29:15;14.40;99.90
16321;DHT22;8269;50.990;4.494;2023-05-09T00:31:40;14.40;99.90
16321;DHT22;8269;50.990;4.494;2023-05-09T00:34:06;14.40;99.90
16321;DHT22;8269;50.990;4.494;2023-05-09T00:36:32;14.40;99.90
16321;DHT22;8269;50.990;4.494;2023-05-09T00:38:58;14.40;99.90
16321;DHT22;8269;50.990;4.494;2023-05-09T00:41:24;14.40;99.90
16321;DHT22;8269;50.990;4.494;2023-05-09T00:43:50;14.40;99.90
16321;DHT22;8269;50.990;4.494;2023-05-09T00:46:15;14.30;99.90
16321;DHT22;8269;50.990;4.494;2023-05-09T00:48:41;14.30;99.90
16321;DHT22;8269;50.990;4.494;2023-05-09T00:51:07;14.30;99.90
16321;DHT22;8269;50.990;4.494;2023-05-09T00:53:33;14.30;99.90
16321;DHT22;8269;50.990;4.494;2023-05-09T00:55:59;14.30;99.90
16321;DHT22;8269;50.990;4.494;2023-05-09T00:58:26;14.30;99.90
16321;DHT22;8269;50.990;4.494;2023-05-09T01:00:51;14.30;99.90
16321;DHT22;8269;50.990;4.494;2023-05-09T01:03:17;14.30;99.90
16321;DHT22;8269;50.990;4.494;2023-05-09T01:08:26;14.30;99.90
16321;DHT22;8269;50.990;4.494;2023-05-09T01:10:58;14.20;99.90
16321;DHT22;8269;50.990;4.494;2023-05-09T01:13:40;14.20;99.90
16321;DHT22;8269;50.990;4.494;2023-05-09T01:16:25;14.20;99.90
16321;DHT22;8269;50.990;4.494;2023-05-09T01:21:50;14.20;99.90
16321;DHT22;8269;50.990;4.494;2023-05-09T01:24:54;14.20;99.90
16321;DHT22;8269;50.990;4.494;2023-05-09T01:27:56;14.20;99.90
16321;DHT22;8269;50.990;4.494;2023-05-09T01:30:24;14.20;99.90
16321;DHT22;8269;50.990;4.494;2023-05-09T01:32:51;14.20;99.90
16321;DHT22;8269;50.990;4.494;2023-05-09T01:35:18;14.20;99.90
16321;DHT22;8269;50.990;4.494;2023-05-09T01:37:48;14.20;99.90
16321;DHT22;8269;50.990;4.494;2023-05-09T01:40:17;14.10;99.90
16321;DHT22;8269;50.990;4.494;2023-05-09T01:42:46;14.20;99.90
16321;DHT22;8269;50.990;4.494;2023-05-09T01:45:14;14.10;99.90
16321;DHT22;8269;50.990;4.494;2023-05-09T01:47:41;14.20;99.90
16321;DHT22;8269;50.990;4.494;2023-05-09T01:50:10;14.20;99.90
16321;DHT22;8269;50.990;4.494;2023-05-09T01:52:37;14.20;99.90
16321;DHT22;8269;50.990;4.494;2023-05-09T01:55:04;14.20;99.90
16321;DHT22;8269;50.990;4.494;2023-05-09T01:57:32;14.30;99.90
16321;DHT22;8269;50.990;4.494;2023-05-09T01:59:59;14.20;99.90
16321;DHT22;8269;50.990;4.494;2023-05-09T02:02:26;14.20;99.90
16321;DHT22;8269;50.990;4.494;2023-05-09T02:04:54;14.20;99.90
16321;DHT22;8269;50.990;4.494;2023-05-09T02:07:22;14.20;99.90
16321;DHT22;8269;50.990;4.494;2023-05-09T02:09:49;14.10;99.90
16321;DHT22;8269;50.990;4.494;2023-05-09T02:12:15;14.20;99.90
16321;DHT22;8269;50.990;4.494;2023-05-09T02:14:40;14.20;99.90
16321;DHT22;8269;50.990;4.494;2023-05-09T02:17:06;14.20;99.90
16321;DHT22;8269;50.990;4.494;2023-05-09T02:19:34;14.20;99.90
16321;DHT22;8269;50.990;4.494;2023-05-09T02:22:01;14.20;99.90
16321;DHT22;8269;50.990;4.494;2023-05-09T02:24:27;14.20;99.90
16321;DHT22;8269;50.990;4.494;2023-05-09T02:26:54;14.20;99.90
16321;DHT22;8269;50.990;4.494;2023-05-09T02:29:20;14.20;99.90
16321;DHT22;8269;50.990;4.494;2023-05-09T02:31:49;14.20;99.90
16321;DHT22;8269;50.990;4.494;2023-05-09T02:34:15;14.20;99.90
16321;DHT22;8269;50.990;4.494;2023-05-09T02:36:42;14.20;99.90
16321;DHT22;8269;50.990;4.494;2023-05-09T02:39:08;14.20;99.90
16321;DHT22;8269;50.990;4.494;2023-05-09T02:41:34;14.20;99.90
16321;DHT22;8269;50.990;4.494;2023-05-09T02:43:59;14.20;99.90
16321;DHT22;8269;50.990;4.494;2023-05-09T02:46:25;14.20;99.90
16321;DHT22;8269;50.990;4.494;2023-05-09T02:48:51;14.20;99.90
16321;DHT22;8269;50.990;4.494;2023-05-09T02:51:17;14.10;99.90
16321;DHT22;8269;50.990;4.494;2023-05-09T02:53:42;14.10;99.90
16321;DHT22;8269;50.990;4.494;2023-05-09T02:56:08;14.20;99.90
16321;DHT22;8269;50.990;4.494;2023-05-09T02:58:35;14.20;99.90
16321;DHT22;8269;50.990;4.494;2023-05-09T03:01:00;14.20;99.90
16321;DHT22;8269;50.990;4.494;2023-05-09T03:03:26;14.30;99.90
16321;DHT22;8269;50.990;4.494;2023-05-09T03:05:52;14.30;99.90
16321;DHT22;8269;50.990;4.494;2023-05-09T03:08:17;14.20;99.90
16321;DHT22;8269;50.990;4.494;2023-05-09T03:10:43;14.30;99.90
16321;DHT22;8269;50.990;4.494;2023-05-09T03:13:09;14.30;99.90
16321;DHT22;8269;50.990;4.494;2023-05-09T03:15:35;14.30;99.90
16321;DHT22;8269;50.990;4.494;2023-05-09T03:18:01;14.30;99.90
16321;DHT22;8269;50.990;4.494;2023-05-09T03:20:26;14.30;99.90
16321;DHT22;8269;50.990;4.494;2023-05-09T03:22:52;14.30;99.90
16321;DHT22;8269;50.990;4.494;2023-05-09T03:25:18;14.40;99.90
16321;DHT22;8269;50.990;4.494;2023-05-09T03:27:43;14.40;99.90
16321;DHT22;8269;50.990;4.494;2023-05-09T03:30:09;14.30;99.90
16321;DHT22;8269;50.990;4.494;2023-05-09T03:32:35;14.30;99.90
16321;DHT22;8269;50.990;4.494;2023-05-09T03:35:01;14.30;99.90
16321;DHT22;8269;50.990;4.494;2023-05-09T03:37:27;14.30;99.90
16321;DHT22;8269;50.990;4.494;2023-05-09T03:39:54;14.30;99.90
16321;DHT22;8269;50.990;4.494;2023-05-09T03:42:19;14.30;99.90
16321;DHT22;8269;50.990;4.494;2023-05-09T03:44:45;14.30;99.90
16321;DHT22;8269;50.990;4.494;2023-05-09T03:47:11;14.30;99.90
16321;DHT22;8269;50.990;4.494;2023-05-09T03:49:37;14.30;99.90
16321;DHT22;8269;50.990;4.494;2023-05-09T03:52:03;14.20;99.90
16321;DHT22;8269;50.990;4.494;2023-05-09T03:54:28;14.20;99.90
16321;DHT22;8269;50.990;4.494;2023-05-09T03:56:54;14.20;99.90
16321;DHT22;8269;50.990;4.494;2023-05-09T03:59:20;14.30;99.90
16321;DHT22;8269;50.990;4.494;2023-05-09T04:01:45;14.30;99.90
16321;DHT22;8269;50.990;4.494;2023-05-09T04:04:11;14.30;99.90
16321;DHT22;8269;50.990;4.494;2023-05-09T04:06:37;14.30;99.90
16321;DHT22;8269;50.990;4.494;2023-05-09T04:09:03;14.30;99.90
16321;DHT22;8269;50.990;4.494;2023-05-09T04:11:28;14.30;99.90
16321;DHT22;8269;50.990;4.494;2023-05-09T04:13:54;14.40;99.90
16321;DHT22;8269;50.990;4.494;2023-05-09T04:16:19;14.40;99.90
16321;DHT22;8269;50.990;4.494;2023-05-09T04:18:45;14.40;99.90
16321;DHT22;8269;50.990;4.494;2023-05-09T04:21:11;14.40;99.90
16321;DHT22;8269;50.990;4.494;2023-05-09T04:23:37;14.40;99.90
16321;DHT22;8269;50.990;4.494;2023-05-09T04:26:03;14.30;99.90
16321;DHT22;8269;50.990;4.494;2023-05-09T04:28:29;14.30;99.90
16321;DHT22;8269;50.990;4.494;2023-05-09T04:30:54;14.20;99.90
16321;DHT22;8269;50.990;4.494;2023-05-09T04:33:20;14.20;99.90
16321;DHT22;8269;50.990;4.494;2023-05-09T04:35:46;14.20;99.90
16321;DHT22;8269;50.990;4.494;2023-05-09T04:38:13;14.20;99.90
16321;DHT22;8269;50.990;4.494;2023-05-09T04:40:38;14.20;99.90
16321;DHT22;8269;50.990;4.494;2023-05-09T04:43:04;14.20;99.90
16321;DHT22;8269;50.990;4.494;2023-05-09T09:16:37;15.20;99.90
16321;DHT22;8269;50.990;4.494;2023-05-09T09:19:11;15.20;99.90
16321;DHT22;8269;50.990;4.494;2023-05-09T09:21:40;15.20;99.90
16321;DHT22;8269;50.990;4.494;2023-05-09T09:24:18;15.20;99.90
16321;DHT22;8269;50.990;4.494;2023-05-09T09:26:48;15.30;99.90
16321;DHT22;8269;50.990;4.494;2023-05-09T09:29:15;15.20;99.90
16321;DHT22;8269;50.990;4.494;2023-05-09T09:31:45;15.20;99.90
16321;DHT22;8269;50.990;4.494;2023-05-09T09:34:18;15.10;99.90
16321;DHT22;8269;50.990;4.494;2023-05-09T09:36:44;15.00;99.90
16321;DHT22;8269;50.990;4.494;2023-05-09T09:39:12;15.00;99.90
16321;DHT22;8269;50.990;4.494;2023-05-09T09:41:38;15.00;99.90
16321;DHT22;8269;50.990;4.494;2023-05-09T09:44:14;15.10;99.90
16321;DHT22;8269;50.990;4.494;2023-05-09T09:46:44;15.20;99.90
16321;DHT22;8269;50.990;4.494;2023-05-09T09:49:15;15.30;99.90
16321;DHT22;8269;50.990;4.494;2023-05-09T09:51:42;15.30;99.90
16321;DHT22;8269;50.990;4.494;2023-05-09T09:54:09;15.30;99.90
16321;DHT22;8269;50.990;4.494;2023-05-09T09:56:44;15.30;99.90
16321;DHT22;8269;50.990;4.494;2023-05-09T09:59:19;15.30;99.90
16321;DHT22;8269;50.990;4.494;2023-05-09T10:02:00;15.30;99.90
16321;DHT22;8269;50.990;4.494;2023-05-09T10:04:31;15.20;99.90
16321;DHT22;8269;50.990;4.494;2023-05-09T10:06:58;15.30;99.90
16321;DHT22;8269;50.990;4.494;2023-05-09T10:09:26;15.20;99.90
16321;DHT22;8269;50.990;4.494;2023-05-09T10:11:54;15.10;99.90
16321;DHT22;8269;50.990;4.494;2023-05-09T10:14:21;15.10;99.90
16321;DHT22;8269;50.990;4.494;2023-05-09T10:16:48;15.10;99.90
16321;DHT22;8269;50.990;4.494;2023-05-09T10:19:19;15.10;99.90
16321;DHT22;8269;50.990;4.494;2023-05-09T10:21:53;15.10;99.90
16321;DHT22;8269;50.990;4.494;2023-05-09T10:24:39;15.10;99.90
16321;DHT22;8269;50.990;4.494;2023-05-09T10:27:09;15.10;99.90
16321;DHT22;8269;50.990;4.494;2023-05-09T10:30:35;15.20;99.90
16321;DHT22;8269;50.990;4.494;2023-05-09T10:32:51;15.20;99.90
16321;DHT22;8269;50.990;4.494;2023-05-09T10:35:19;15.30;99.90
16321;DHT22;8269;50.990;4.494;2023-05-09T10:37:46;15.30;99.90
16321;DHT22;8269;50.990;4.494;2023-05-09T10:40:12;15.30;99.90
16321;DHT22;8269;50.990;4.494;2023-05-09T10:42:43;15.20;99.90
16321;DHT22;8269;50.990;4.494;2023-05-09T10:45:10;15.30;99.90
16321;DHT22;8269;50.990;4.494;2023-05-09T10:47:37;15.20;99.90
16321;DHT22;8269;50.990;4.494;2023-05-09T10:50:07;15.30;99.90
16321;DHT22;8269;50.990;4.494;2023-05-09T10:55:52;15.40;99.90
16321;DHT22;8269;50.990;4.494;2023-05-09T10:58:29;15.40;99.90
16321;DHT22;8269;50.990;4.494;2023-05-09T11:00:58;15.40;99.90
16321;DHT22;8269;50.990;4.494;2023-05-09T11:03:26;15.40;99.90
16321;DHT22;8269;50.990;4.494;2023-05-09T11:05:54;15.30;99.90
16321;DHT22;8269;50.990;4.494;2023-05-09T11:08:27;15.30;99.90
16321;DHT22;8269;50.990;4.494;2023-05-09T11:10:55;15.20;99.90
16321;DHT22;8269;50.990;4.494;2023-05-09T11:13:23;15.10;99.90
16321;DHT22;8269;50.990;4.494;2023-05-09T11:16:09;15.10;99.90
16321;DHT22;8269;50.990;4.494;2023-05-09T11:18:48;15.00;99.90
16321;DHT22;8269;50.990;4.494;2023-05-09T11:21:15;15.00;99.90
16321;DHT22;8269;50.990;4.494;2023-05-09T11:23:41;15.00;99.90
16321;DHT22;8269;50.990;4.494;2023-05-09T11:26:08;15.10;99.90
16321;DHT22;8269;50.990;4.494;2023-05-09T11:28:35;15.10;99.90
16321;DHT22;8269;50.990;4.494;2023-05-09T11:31:15;15.20;99.90
16321;DHT22;8269;50.990;4.494;2023-05-09T11:33:43;15.10;99.90
16321;DHT22;8269;50.990;4.494;2023-05-09T11:36:27;15.10;99.90
16321;DHT22;8269;50.990;4.494;2023-05-09T11:39:10;15.10;99.90
16321;DHT22;8269;50.990;4.494;2023-05-09T11:41:41;15.00;99.90
16321;DHT22;8269;50.990;4.494;2023-05-09T11:44:20;14.90;99.90
16321;DHT22;8269;50.990;4.494;2023-05-09T11:46:47;14.90;99.90
16321;DHT22;8269;50.990;4.494;2023-05-09T11:49:14;14.90;99.90
16321;DHT22;8269;50.990;4.494;2023-05-09T11:51:43;14.80;99.90
16321;DHT22;8269;50.990;4.494;2023-05-09T11:54:10;14.80;99.90
16321;DHT22;8269;50.990;4.494;2023-05-09T11:56:40;14.80;99.90
16321;DHT22;8269;50.990;4.494;2023-05-09T11:59:06;14.80;99.90
16321;DHT22;8269;50.990;4.494;2023-05-09T12:01:32;14.70;99.90
16321;DHT22;8269;50.990;4.494;2023-05-09T12:04:01;14.70;99.90
16321;DHT22;8269;50.990;4.494;2023-05-09T12:06:26;14.60;99.90
16321;DHT22;8269;50.990;4.494;2023-05-09T12:08:54;14.70;99.90
16321;DHT22;8269;50.990;4.494;2023-05-09T12:11:30;14.80;99.90
16321;DHT22;8269;50.990;4.494;2023-05-09T12:14:02;14.90;99.90
16321;DHT22;8269;50.990;4.494;2023-05-09T12:16:28;15.00;99.90
16321;DHT22;8269;50.990;4.494;2023-05-09T12:18:55;15.10;99.90
16321;DHT22;8269;50.990;4.494;2023-05-09T12:21:21;15.10;99.90
16321;DHT22;8269;50.990;4.494;2023-05-09T12:23:47;15.20;99.90
16321;DHT22;8269;50.990;4.494;2023-05-09T12:26:13;15.20;99.90
16321;DHT22;8269;50.990;4.494;2023-05-09T12:28:39;15.20;99.90
16321;DHT22;8269;50.990;4.494;2023-05-09T12:31:06;15.10;99.90
16321;DHT22;8269;50.990;4.494;2023-05-09T12:33:32;15.00;99.90
16321;DHT22;8269;50.990;4.494;2023-05-09T12:36:10;14.80;99.90
16321;DHT22;8269;50.990;4.494;2023-05-09T12:38:37;14.70;99.90
16321;DHT22;8269;50.990;4.494;2023-05-09T12:41:05;14.70;99.90
16321;DHT22;8269;50.990;4.494;2023-05-09T12:43:36;14.60;99.90
16321;DHT22;8269;50.990;4.494;2023-05-09T12:46:11;14.70;99.90
16321;DHT22;8269;50.990;4.494;2023-05-09T12:48:38;14.70;99.90
16321;DHT22;8269;50.990;4.494;2023-05-09T12:51:04;14.60;99.90
16321;DHT22;8269;50.990;4.494;2023-05-09T12:53:34;14.40;99.90
16321;DHT22;8269;50.990;4.494;2023-05-09T12:56:02;14.30;99.90
16321;DHT22;8269;50.990;4.494;2023-05-09T12:58:32;14.30;99.90
16321;DHT22;8269;50.990;4.494;2023-05-09T13:00:58;14.30;99.90
16321;DHT22;8269;50.990;4.494;2023-05-09T13:03:26;14.30;99.90
16321;DHT22;8269;50.990;4.494;2023-05-09T13:06:03;14.20;99.90
16321;DHT22;8269;50.990;4.494;2023-05-09T13:08:30;14.30;99.90
16321;DHT22;8269;50.990;4.494;2023-05-09T13:10:57;14.40;99.90
16321;DHT22;8269;50.990;4.494;2023-05-09T13:13:26;14.40;99.90
16321;DHT22;8269;50.990;4.494;2023-05-09T13:15:53;14.30;99.90
16321;DHT22;8269;50.990;4.494;2023-05-09T13:18:20;14.50;99.90
16321;DHT22;8269;50.990;4.494;2023-05-09T13:20:46;14.30;99.90
16321;DHT22;8269;50.990;4.494;2023-05-09T13:23:13;14.30;99.90
16321;DHT22;8269;50.990;4.494;2023-05-09T13:25:40;14.20;99.90
16321;DHT22;8269;50.990;4.494;2023-05-09T13:28:06;14.10;99.90
16321;DHT22;8269;50.990;4.494;2023-05-09T13:30:33;14.10;99.90
16321;DHT22;8269;50.990;4.494;2023-05-09T13:35:26;14.10;99.90
16321;DHT22;8269;50.990;4.494;2023-05-09T13:37:52;14.30;99.90
16321;DHT22;8269;50.990;4.494;2023-05-09T13:40:18;14.30;99.90
16321;DHT22;8269;50.990;4.494;2023-05-09T13:42:44;14.30;99.90
16321;DHT22;8269;50.990;4.494;2023-05-09T13:45:09;14.40;99.90
16321;DHT22;8269;50.990;4.494;2023-05-09T13:47:36;14.50;99.90
16321;DHT22;8269;50.990;4.494;2023-05-09T13:50:02;14.50;99.90
16321;DHT22;8269;50.990;4.494;2023-05-09T13:52:32;14.50;99.90
16321;DHT22;8269;50.990;4.494;2023-05-09T13:55:00;14.50;99.90
16321;DHT22;8269;50.990;4.494;2023-05-09T13:57:27;14.40;99.90
16321;DHT22;8269;50.990;4.494;2023-05-09T13:59:54;14.40;99.90
16321;DHT22;8269;50.990;4.494;2023-05-09T14:02:20;14.40;99.90
16321;DHT22;8269;50.990;4.494;2023-05-09T14:04:45;14.30;99.90
16321;DHT22;8269;50.990;4.494;2023-05-09T14:07:12;14.30;99.90
16321;DHT22;8269;50.990;4.494;2023-05-09T14:09:40;14.30;99.90
16321;DHT22;8269;50.990;4.494;2023-05-09T14:12:06;14.20;99.90
16321;DHT22;8269;50.990;4.494;2023-05-09T14:14:32;14.20;99.90
16321;DHT22;8269;50.990;4.494;2023-05-09T14:17:00;14.20;99.90
16321;DHT22;8269;50.990;4.494;2023-05-09T14:19:26;14.20;99.90
16321;DHT22;8269;50.990;4.494;2023-05-09T14:21:52;14.20;99.90
16321;DHT22;8269;50.990;4.494;2023-05-09T14:24:18;14.20;99.90
16321;DHT22;8269;50.990;4.494;2023-05-09T14:26:47;14.20;99.90
16321;DHT22;8269;50.990;4.494;2023-05-09T14:29:13;14.20;99.90
16321;DHT22;8269;50.990;4.494;2023-05-09T14:31:39;14.20;99.90
16321;DHT22;8269;50.990;4.494;2023-05-09T14:34:05;14.20;99.90
16321;DHT22;8269;50.990;4.494;2023-05-09T14:36:31;14.20;99.90
16321;DHT22;8269;50.990;4.494;2023-05-09T14:38:57;14.10;99.90
16321;DHT22;8269;50.990;4.494;2023-05-09T14:41:23;14.10;99.90
16321;DHT22;8269;50.990;4.494;2023-05-09T14:43:51;14.00;99.90
16321;DHT22;8269;50.990;4.494;2023-05-09T14:46:17;14.00;99.90
16321;DHT22;8269;50.990;4.494;2023-05-09T14:48:43;14.00;99.90
16321;DHT22;8269;50.990;4.494;2023-05-09T14:51:08;14.00;99.90
16321;DHT22;8269;50.990;4.494;2023-05-09T14:53:34;13.90;99.90
16321;DHT22;8269;50.990;4.494;2023-05-09T14:56:05;13.80;99.90
16321;DHT22;8269;50.990;4.494;2023-05-09T14:58:31;13.70;99.90
16321;DHT22;8269;50.990;4.494;2023-05-09T15:00:59;13.70;99.90
16321;DHT22;8269;50.990;4.494;2023-05-09T15:03:26;13.70;99.90
16321;DHT22;8269;50.990;4.494;2023-05-09T15:05:52;13.70;99.90
16321;DHT22;8269;50.990;4.494;2023-05-09T15:08:17;13.70;99.90
16321;DHT22;8269;50.990;4.494;2023-05-09T15:10:44;13.70;99.90
16321;DHT22;8269;50.990;4.494;2023-05-09T15:13:10;13.70;99.90
16321;DHT22;8269;50.990;4.494;2023-05-09T15:15:38;13.70;99.90
16321;DHT22;8269;50.990;4.494;2023-05-09T15:18:05;13.70;99.90
16321;DHT22;8269;50.990;4.494;2023-05-09T15:20:35;13.70;99.90
16321;DHT22;8269;50.990;4.494;2023-05-09T15:23:02;13.70;99.90
16321;DHT22;8269;50.990;4.494;2023-05-09T15:25:28;13.70;99.90
16321;DHT22;8269;50.990;4.494;2023-05-09T15:27:54;13.80;99.90
16321;DHT22;8269;50.990;4.494;2023-05-09T15:30:20;13.90;99.90
16321;DHT22;8269;50.990;4.494;2023-05-09T15:32:46;13.90;99.90
16321;DHT22;8269;50.990;4.494;2023-05-09T15:35:12;13.90;99.90
16321;DHT22;8269;50.990;4.494;2023-05-09T15:37:39;13.90;99.90
16321;DHT22;8269;50.990;4.494;2023-05-09T15:40:05;14.00;99.90
16321;DHT22;8269;50.990;4.494;2023-05-09T15:42:32;13.90;99.90
16321;DHT22;8269;50.990;4.494;2023-05-09T15:44:58;13.90;99.90
16321;DHT22;8269;50.990;4.494;2023-05-09T15:47:24;13.90;99.90
16321;DHT22;8269;50.990;4.494;2023-05-09T15:49:50;14.00;99.90
16321;DHT22;8269;50.990;4.494;2023-05-09T15:52:15;14.00;99.90
16321;DHT22;8269;50.990;4.494;2023-05-09T15:54:41;14.00;99.90
16321;DHT22;8269;50.990;4.494;2023-05-09T15:57:10;14.10;99.90
16321;DHT22;8269;50.990;4.494;2023-05-09T15:59:36;14.10;99.90
16321;DHT22;8269;50.990;4.494;2023-05-09T16:02:01;14.10;99.90
16321;DHT22;8269;50.990;4.494;2023-05-09T16:04:27;14.10;99.90
16321;DHT22;8269;50.990;4.494;2023-05-09T16:06:53;14.10;99.90
16321;DHT22;8269;50.990;4.494;2023-05-09T16:09:20;14.20;99.90
16321;DHT22;8269;50.990;4.494;2023-05-09T16:11:45;14.20;99.90
16321;DHT22;8269;50.990;4.494;2023-05-09T16:14:12;14.30;99.90
16321;DHT22;8269;50.990;4.494;2023-05-09T16:16:38;14.30;99.90
16321;DHT22;8269;50.990;4.494;2023-05-09T16:19:05;14.30;99.90
16321;DHT22;8269;50.990;4.494;2023-05-09T16:21:31;14.30;99.90
16321;DHT22;8269;50.990;4.494;2023-05-09T16:23:58;14.30;99.90
16321;DHT22;8269;50.990;4.494;2023-05-09T16:26:25;14.30;99.90
16321;DHT22;8269;50.990;4.494;2023-05-09T16:28:51;14.30;99.90
16321;DHT22;8269;50.990;4.494;2023-05-09T16:31:17;14.30;99.90
16321;DHT22;8269;50.990;4.494;2023-05-09T16:33:43;14.30;99.90
16321;DHT22;8269;50.990;4.494;2023-05-09T16:36:11;14.30;99.90
16321;DHT22;8269;50.990;4.494;2023-05-09T16:38:37;14.40;99.90
16321;DHT22;8269;50.990;4.494;2023-05-09T16:41:03;14.30;99.90
16321;DHT22;8269;50.990;4.494;2023-05-09T16:43:29;14.20;99.90
16321;DHT22;8269;50.990;4.494;2023-05-09T16:45:55;14.20;99.90
16321;DHT22;8269;50.990;4.494;2023-05-09T16:48:21;14.20;99.90
16321;DHT22;8269;50.990;4.494;2023-05-09T16:50:47;14.20;99.90
16321;DHT22;8269;50.990;4.494;2023-05-09T16:53:13;14.20;99.90
16321;DHT22;8269;50.990;4.494;2023-05-09T16:55:39;14.20;99.90
16321;DHT22;8269;50.990;4.494;2023-05-09T16:58:05;14.20;99.90
16321;DHT22;8269;50.990;4.494;2023-05-09T17:00:31;14.20;99.90
16321;DHT22;8269;50.990;4.494;2023-05-09T17:02:58;14.30;99.90
16321;DHT22;8269;50.990;4.494;2023-05-09T17:05:24;14.30;99.90
16321;DHT22;8269;50.990;4.494;2023-05-09T17:07:50;14.30;99.90
16321;DHT22;8269;50.990;4.494;2023-05-09T17:10:16;14.30;99.90
16321;DHT22;8269;50.990;4.494;2023-05-09T17:12:41;14.30;99.90
16321;DHT22;8269;50.990;4.494;2023-05-09T17:15:08;14.40;99.90
16321;DHT22;8269;50.990;4.494;2023-05-09T17:17:34;14.40;99.90
16321;DHT22;8269;50.990;4.494;2023-05-09T17:20:00;14.40;99.90
16321;DHT22;8269;50.990;4.494;2023-05-09T17:22:26;14.40;99.90
16321;DHT22;8269;50.990;4.494;2023-05-09T17:24:53;14.40;99.90
16321;DHT22;8269;50.990;4.494;2023-05-09T17:27:19;14.30;99.90
16321;DHT22;8269;50.990;4.494;2023-05-09T17:29:45;14.40;99.90
16321;DHT22;8269;50.990;4.494;2023-05-09T17:32:12;14.40;99.90
16321;DHT22;8269;50.990;4.494;2023-05-09T17:34:38;14.40;99.90
16321;DHT22;8269;50.990;4.494;2023-05-09T17:37:05;14.40;99.90
16321;DHT22;8269;50.990;4.494;2023-05-09T17:39:31;14.40;99.90
16321;DHT22;8269;50.990;4.494;2023-05-09T17:41:57;14.50;99.90
16321;DHT22;8269;50.990;4.494;2023-05-09T17:44:23;14.50;99.90
16321;DHT22;8269;50.990;4.494;2023-05-09T17:46:49;14.50;99.90
16321;DHT22;8269;50.990;4.494;2023-05-09T17:49:16;14.50;99.90
16321;DHT22;8269;50.990;4.494;2023-05-09T17:51:42;14.50;99.90
16321;DHT22;8269;50.990;4.494;2023-05-09T17:54:09;14.50;99.90
16321;DHT22;8269;50.990;4.494;2023-05-09T17:56:35;14.50;99.90
16321;DHT22;8269;50.990;4.494;2023-05-09T17:59:01;14.50;99.90
16321;DHT22;8269;50.990;4.494;2023-05-09T18:01:27;14.50;99.90
16321;DHT22;8269;50.990;4.494;2023-05-09T18:03:53;14.50;99.90
16321;DHT22;8269;50.990;4.494;2023-05-09T18:06:20;14.50;99.90
16321;DHT22;8269;50.990;4.494;2023-05-09T18:08:46;14.50;99.90
16321;DHT22;8269;50.990;4.494;2023-05-09T18:11:11;14.40;99.90
16321;DHT22;8269;50.990;4.494;2023-05-09T18:13:37;14.30;99.90
16321;DHT22;8269;50.990;4.494;2023-05-09T18:16:03;14.30;99.90
16321;DHT22;8269;50.990;4.494;2023-05-09T18:18:29;14.30;99.90
16321;DHT22;8269;50.990;4.494;2023-05-09T18:20:59;14.30;99.90
16321;DHT22;8269;50.990;4.494;2023-05-09T18:23:26;14.40;99.90
16321;DHT22;8269;50.990;4.494;2023-05-09T18:25:52;14.40;99.90
16321;DHT22;8269;50.990;4.494;2023-05-09T18:28:19;14.40;99.90
16321;DHT22;8269;50.990;4.494;2023-05-09T18:30:53;14.30;99.90
16321;DHT22;8269;50.990;4.494;2023-05-09T18:33:21;14.40;99.90
16321;DHT22;8269;50.990;4.494;2023-05-09T18:35:47;14.40;99.90
16321;DHT22;8269;50.990;4.494;2023-05-09T18:38:13;14.30;99.90
16321;DHT22;8269;50.990;4.494;2023-05-09T18:40:40;14.40;99.90
16321;DHT22;8269;50.990;4.494;2023-05-09T18:43:07;14.30;99.90
16321;DHT22;8269;50.990;4.494;2023-05-09T18:45:34;14.30;99.90
16321;DHT22;8269;50.990;4.494;2023-05-09T18:48:03;14.30;99.90
16321;DHT22;8269;50.990;4.494;2023-05-09T18:50:29;14.20;99.90
16321;DHT22;8269;50.990;4.494;2023-05-09T18:52:56;14.20;99.90
16321;DHT22;8269;50.990;4.494;2023-05-09T18:55:22;14.20;99.90
16321;DHT22;8269;50.990;4.494;2023-05-09T18:57:48;14.20;99.90
16321;DHT22;8269;50.990;4.494;2023-05-09T19:00:19;14.20;99.90
16321;DHT22;8269;50.990;4.494;2023-05-09T19:02:55;14.20;99.90
16321;DHT22;8269;50.990;4.494;2023-05-09T19:05:22;14.20;99.90
16321;DHT22;8269;50.990;4.494;2023-05-09T19:07:48;14.30;99.90
16321;DHT22;8269;50.990;4.494;2023-05-09T19:10:17;14.20;99.90
16321;DHT22;8269;50.990;4.494;2023-05-09T19:12:43;14.20;99.90
16321;DHT22;8269;50.990;4.494;2023-05-09T19:15:09;14.20;99.90
16321;DHT22;8269;50.990;4.494;2023-05-09T19:17:35;14.20;99.90
16321;DHT22;8269;50.990;4.494;2023-05-09T19:20:03;14.10;99.90
16321;DHT22;8269;50.990;4.494;2023-05-09T19:22:30;14.00;99.90
16321;DHT22;8269;50.990;4.494;2023-05-09T19:24:57;14.00;99.90
16321;DHT22;8269;50.990;4.494;2023-05-09T19:27:27;14.00;99.90
16321;DHT22;8269;50.990;4.494;2023-05-09T19:29:52;13.90;99.90
16321;DHT22;8269;50.990;4.494;2023-05-09T19:32:21;13.90;99.90
16321;DHT22;8269;50.990;4.494;2023-05-09T19:34:47;13.90;99.90
16321;DHT22;8269;50.990;4.494;2023-05-09T19:37:13;13.90;99.90
16321;DHT22;8269;50.990;4.494;2023-05-09T19:39:38;13.80;99.90
16321;DHT22;8269;50.990;4.494;2023-05-09T19:42:04;13.80;99.90
16321;DHT22;8269;50.990;4.494;2023-05-09T19:44:30;13.80;99.90
16321;DHT22;8269;50.990;4.494;2023-05-09T19:46:56;13.80;99.90
16321;DHT22;8269;50.990;4.494;2023-05-09T19:49:24;13.80;99.90
16321;DHT22;8269;50.990;4.494;2023-05-09T19:51:51;13.80;99.90
16321;DHT22;8269;50.990;4.494;2023-05-09T19:54:25;13.80;99.90
16321;DHT22;8269;50.990;4.494;2023-05-09T19:57:10;13.90;99.90
16321;DHT22;8269;50.990;4.494;2023-05-09T19:59:36;13.90;99.90
16321;DHT22;8269;50.990;4.494;2023-05-09T20:02:05;14.00;99.90
16321;DHT22;8269;50.990;4.494;2023-05-09T20:04:33;14.00;99.90
16321;DHT22;8269;50.990;4.494;2023-05-09T20:07:01;13.90;99.90
16321;DHT22;8269;50.990;4.494;2023-05-09T20:09:27;13.90;99.90
16321;DHT22;8269;50.990;4.494;2023-05-09T20:12:05;13.90;99.90
16321;DHT22;8269;50.990;4.494;2023-05-09T20:14:32;13.90;99.90
16321;DHT22;8269;50.990;4.494;2023-05-09T20:16:57;13.90;99.90
16321;DHT22;8269;50.990;4.494;2023-05-09T20:19:24;13.80;99.90
16321;DHT22;8269;50.990;4.494;2023-05-09T20:21:49;13.80;99.90
16321;DHT22;8269;50.990;4.494;2023-05-09T20:24:15;13.80;99.90
16321;DHT22;8269;50.990;4.494;2023-05-09T20:26:41;13.80;99.90
16321;DHT22;8269;50.990;4.494;2023-05-09T20:29:07;13.90;99.90